createdAt,value
2022-10-18T03:45:32.855Z,16.40
2022-10-18T03:47:59.777Z,16.40
2022-10-18T03:50:26.781Z,16.40
2022-10-18T03:52:55.386Z,16.40
2022-10-18T03:55:22.420Z,16.40
2022-10-18T03:57:49.430Z,16.40
2022-10-18T04:00:16.472Z,16.40
2022-10-18T04:02:43.405Z,16.40
2022-10-18T04:05:10.574Z,16.40
2022-10-18T04:10:09.472Z,16.50
2022-10-18T04:12:36.515Z,16.50
2022-10-18T04:15:03.802Z,16.50
2022-10-18T04:17:31.033Z,16.50
2022-10-18T04:19:58.197Z,16.50
2022-10-18T04:22:25.135Z,16.50
2022-10-18T04:24:53.303Z,16.50
2022-10-18T04:27:20.246Z,16.50
2022-10-18T04:29:47.387Z,16.40
2022-10-18T04:32:14.308Z,16.40
2022-10-18T04:37:08.185Z,16.40
2022-10-18T04:39:35.101Z,16.40
2022-10-18T04:42:02.038Z,16.40
2022-10-18T04:44:29.078Z,16.40
2022-10-18T04:46:55.998Z,16.40
2022-10-18T04:49:22.973Z,16.40
2022-10-18T04:51:49.905Z,16.40
2022-10-18T04:54:16.869Z,16.40
2022-10-18T04:56:43.834Z,16.40
2022-10-18T04:59:10.810Z,16.30
2022-10-18T05:01:37.810Z,16.30
2022-10-18T05:04:04.833Z,16.30
2022-10-18T05:06:31.757Z,16.30
2022-10-18T05:08:58.695Z,16.30
2022-10-18T05:11:25.665Z,16.30
2022-10-18T05:13:52.768Z,16.30
2022-10-18T05:16:19.733Z,16.20
2022-10-18T05:18:46.741Z,16.20
2022-10-18T05:21:13.707Z,16.10
2022-10-18T05:23:40.637Z,16.20
2022-10-18T05:26:07.689Z,16.10
2022-10-18T05:28:40.223Z,16.20
2022-10-18T05:31:08.799Z,16.20
2022-10-18T05:33:35.810Z,16.20
2022-10-18T05:36:03.284Z,16.10
2022-10-18T05:38:31.024Z,16.00
2022-10-18T05:40:58.886Z,15.90
2022-10-18T05:43:29.054Z,15.90
2022-10-18T05:45:56.105Z,16.00
2022-10-18T05:48:23.082Z,16.00
2022-10-18T05:50:50.118Z,16.00
2022-10-18T05:53:36.703Z,15.90
2022-10-18T05:56:04.236Z,15.90
2022-10-18T05:58:31.163Z,15.90
2022-10-18T06:00:59.099Z,15.90
2022-10-18T06:03:27.504Z,15.90
2022-10-18T06:05:59.064Z,15.90
2022-10-18T06:08:25.994Z,15.70
2022-10-18T06:10:53.004Z,15.70
2022-10-18T06:13:19.932Z,15.60
2022-10-18T06:15:46.857Z,15.60
2022-10-18T06:18:13.782Z,15.70
2022-10-18T06:20:40.713Z,15.70
2022-10-18T06:23:08.016Z,15.60
2022-10-18T06:25:34.973Z,15.70
2022-10-18T06:28:03.648Z,15.60
2022-10-18T06:30:30.615Z,15.70
2022-10-18T06:33:01.274Z,15.70
2022-10-18T06:35:28.227Z,15.70
2022-10-18T06:37:55.286Z,15.70
2022-10-18T06:40:22.253Z,15.70
2022-10-18T06:42:59.962Z,15.80
2022-10-18T06:45:33.339Z,15.80
2022-10-18T06:48:00.277Z,15.90
2022-10-18T06:50:27.228Z,16.00
2022-10-18T06:52:54.327Z,16.10
2022-10-18T06:55:21.312Z,16.10
2022-10-18T06:57:48.261Z,16.00
2022-10-18T07:00:15.601Z,16.00
2022-10-18T07:02:42.596Z,16.00
2022-10-18T07:05:09.856Z,16.00
2022-10-18T07:07:37.182Z,16.00
2022-10-18T07:10:04.778Z,16.10
2022-10-18T07:12:32.509Z,16.10
2022-10-18T07:14:59.450Z,16.10
2022-10-18T07:17:26.638Z,16.10
2022-10-18T07:19:53.682Z,16.10
2022-10-18T07:22:20.642Z,16.10
2022-10-18T07:24:47.593Z,16.20
2022-10-18T07:27:14.519Z,16.20
2022-10-18T07:29:41.494Z,16.20
2022-10-18T07:32:08.426Z,16.20
2022-10-18T07:34:35.423Z,16.20
2022-10-18T07:37:02.395Z,16.20
2022-10-18T07:39:29.316Z,16.20
2022-10-18T07:41:56.397Z,16.20
2022-10-18T07:44:23.357Z,16.30
2022-10-18T07:46:50.298Z,16.40
2022-10-18T07:49:17.941Z,16.60
2022-10-18T07:51:44.874Z,16.60
2022-10-18T07:54:11.794Z,16.60
2022-10-18T07:56:38.709Z,16.70
2022-10-18T07:59:05.633Z,16.70
2022-10-18T08:01:32.693Z,16.70
2022-10-18T08:04:04.673Z,16.80
2022-10-18T08:06:34.600Z,16.80
2022-10-18T08:09:01.531Z,16.70
2022-10-18T08:11:28.483Z,16.60
2022-10-18T08:13:55.438Z,16.60
2022-10-18T08:16:26.531Z,16.50
2022-10-18T08:18:54.080Z,16.60
2022-10-18T08:21:21.640Z,16.60
2022-10-18T08:23:48.865Z,16.70
2022-10-18T08:26:19.684Z,16.70
2022-10-18T08:28:54.071Z,16.80
2022-10-18T08:31:25.587Z,16.80
2022-10-18T08:33:54.307Z,16.80
2022-10-18T08:36:21.254Z,16.80
2022-10-18T08:38:49.284Z,16.70
2022-10-18T08:41:25.234Z,16.80
2022-10-18T08:43:58.398Z,16.80
2022-10-18T08:46:25.886Z,16.90
2022-10-18T08:48:54.026Z,17.10
2022-10-18T08:51:34.062Z,17.10
2022-10-18T08:54:10.285Z,17.20
2022-10-18T08:56:38.151Z,17.20
2022-10-18T08:59:09.178Z,17.30
2022-10-18T09:01:36.205Z,17.40
2022-10-18T09:04:22.106Z,17.40
2022-10-18T09:06:55.950Z,17.50
2022-10-18T09:09:22.898Z,17.60
2022-10-18T09:12:02.424Z,17.60
2022-10-18T09:14:41.437Z,17.60
2022-10-18T09:17:17.519Z,17.60
2022-10-18T09:19:54.999Z,17.70
2022-10-18T09:22:27.088Z,17.70
2022-10-18T09:25:10.039Z,17.80
2022-10-18T09:27:45.817Z,17.80
2022-10-18T09:30:22.311Z,17.90
2022-10-18T09:33:02.850Z,18.00
2022-10-18T09:35:42.815Z,18.00
2022-10-18T09:38:11.178Z,18.10
2022-10-18T09:40:43.355Z,18.20
2022-10-18T09:43:16.997Z,18.20
2022-10-18T09:45:44.805Z,18.30
2022-10-18T09:48:13.973Z,18.40
2022-10-18T09:50:45.482Z,18.40
2022-10-18T09:53:18.248Z,18.50
2022-10-18T09:55:56.966Z,18.60
2022-10-18T09:58:24.353Z,18.70
2022-10-18T10:00:52.784Z,18.80
2022-10-18T10:03:19.763Z,18.90
2022-10-18T10:05:46.752Z,19.00
2022-10-18T10:08:13.683Z,19.10
2022-10-18T10:10:41.486Z,19.10
2022-10-18T10:13:14.291Z,19.20
2022-10-18T10:15:45.567Z,19.30
2022-10-18T10:18:41.634Z,19.30
2022-10-18T10:21:14.294Z,19.40
2022-10-18T10:23:44.202Z,19.50
2022-10-18T10:26:24.699Z,19.50
2022-10-18T10:28:51.783Z,19.60
2022-10-18T10:31:24.776Z,19.60
2022-10-18T10:34:17.891Z,19.70
2022-10-18T10:36:47.806Z,19.80
2022-10-18T10:39:21.536Z,19.90
2022-10-18T10:41:49.494Z,19.90
2022-10-18T10:44:20.289Z,19.90
2022-10-18T10:46:49.217Z,20.00
2022-10-18T10:49:39.100Z,20.00
2022-10-18T10:52:08.735Z,20.10
2022-10-18T10:54:52.096Z,20.20
2022-10-18T10:57:22.511Z,20.20
2022-10-18T10:59:50.732Z,20.30
2022-10-18T11:02:29.617Z,20.30
2022-10-18T11:04:57.644Z,20.40
2022-10-18T11:07:33.865Z,20.40
2022-10-18T11:10:03.606Z,20.50
2022-10-18T11:12:39.237Z,20.50
2022-10-18T11:15:09.863Z,20.50
2022-10-18T11:17:39.546Z,20.50
2022-10-18T11:20:24.585Z,20.60
2022-10-18T11:22:57.891Z,20.60
2022-10-18T11:25:27.383Z,20.70
2022-10-18T11:28:00.338Z,20.80
2022-10-18T11:30:35.879Z,20.80
2022-10-18T11:33:24.829Z,20.80
2022-10-18T11:36:03.669Z,20.90
2022-10-18T11:38:30.928Z,20.90
2022-10-18T11:41:16.402Z,20.90
2022-10-18T11:44:03.410Z,21.00
2022-10-18T11:46:47.132Z,21.10
2022-10-18T11:49:23.854Z,21.10
2022-10-18T11:52:08.939Z,21.10
2022-10-18T11:54:56.679Z,21.20
2022-10-18T11:57:38.509Z,21.20
2022-10-18T12:00:23.734Z,21.20
2022-10-18T12:02:53.557Z,21.20
2022-10-18T12:05:24.552Z,21.20
2022-10-18T12:07:56.510Z,21.30
2022-10-18T12:10:37.708Z,21.30
2022-10-18T12:13:17.265Z,21.40
2022-10-18T12:15:44.565Z,21.50
2022-10-18T12:18:14.594Z,21.60
2022-10-18T12:20:53.266Z,21.60
2022-10-18T12:23:33.372Z,21.70
2022-10-18T12:26:05.103Z,21.80
2022-10-18T12:28:40.979Z,21.80
2022-10-18T12:31:14.396Z,21.90
2022-10-18T12:33:44.364Z,21.90
2022-10-18T12:36:11.314Z,21.90
2022-10-18T12:38:40.840Z,22.00
2022-10-18T12:41:11.720Z,22.00
2022-10-18T12:43:38.746Z,22.00
2022-10-18T12:46:12.284Z,22.10
2022-10-18T12:48:45.451Z,22.10
2022-10-18T12:51:19.593Z,22.20
2022-10-18T12:53:47.653Z,22.20
2022-10-18T12:56:29.677Z,22.20
2022-10-18T12:59:14.902Z,22.30
2022-10-18T13:01:50.737Z,22.30
2022-10-18T13:04:32.343Z,22.40
2022-10-18T13:07:05.194Z,22.40
2022-10-18T13:09:36.396Z,22.50
2022-10-18T13:12:09.233Z,22.50
2022-10-18T13:15:12.610Z,22.60
2022-10-18T13:17:50.737Z,22.70
2022-10-18T13:20:27.093Z,22.60
2022-10-18T13:23:13.470Z,22.70
2022-10-18T13:25:40.401Z,22.70
2022-10-18T13:28:16.370Z,22.70
2022-10-18T13:30:43.377Z,22.80
2022-10-18T13:33:19.369Z,22.80
2022-10-18T13:35:52.272Z,22.80
2022-10-18T13:38:31.469Z,22.90
2022-10-18T13:41:05.710Z,22.90
2022-10-18T13:43:52.604Z,22.90
2022-10-18T13:46:20.740Z,22.90
2022-10-18T13:48:50.457Z,22.90
2022-10-18T13:51:32.484Z,22.90
2022-10-18T13:53:59.394Z,22.90
2022-10-18T13:56:33.935Z,22.90
2022-10-18T13:59:14.315Z,22.90
2022-10-18T14:02:00.644Z,22.90
2022-10-18T14:04:33.462Z,22.90
2022-10-18T14:07:02.611Z,22.90
2022-10-18T14:09:43.741Z,22.90
2022-10-18T14:12:16.605Z,22.90
2022-10-18T14:14:45.288Z,22.90
2022-10-18T14:17:16.951Z,22.90
2022-10-18T14:19:49.034Z,22.90
2022-10-18T14:22:18.346Z,23.00
2022-10-18T14:24:52.698Z,23.00
2022-10-18T14:27:20.810Z,23.00
2022-10-18T14:29:48.362Z,23.00
2022-10-18T14:32:35.612Z,23.00
2022-10-18T14:35:31.091Z,23.00
2022-10-18T14:37:50.677Z,23.00
2022-10-18T14:40:38.896Z,23.00
2022-10-18T14:43:13.305Z,23.00
2022-10-18T14:45:41.247Z,23.00
2022-10-18T14:48:14.098Z,23.10
2022-10-18T14:50:41.825Z,23.20
2022-10-18T14:53:13.638Z,23.20
2022-10-18T14:55:43.012Z,23.20
2022-10-18T14:58:14.589Z,23.20
2022-10-18T15:00:43.912Z,23.20
2022-10-18T15:03:14.943Z,23.20
2022-10-18T15:06:01.424Z,23.20
2022-10-18T15:08:41.432Z,23.20
2022-10-18T15:11:11.840Z,23.20
2022-10-18T15:13:49.909Z,23.20
2022-10-18T15:16:18.580Z,23.30
2022-10-18T15:19:04.051Z,23.30
2022-10-18T15:21:31.674Z,23.20
2022-10-18T15:24:17.045Z,23.20
2022-10-18T15:26:44.882Z,23.20
2022-10-18T15:29:17.077Z,23.20
2022-10-18T15:31:44.457Z,23.20
2022-10-18T15:34:15.319Z,23.20
2022-10-18T15:39:16.906Z,23.20
2022-10-18T15:41:48.970Z,23.20
2022-10-18T15:44:35.497Z,23.20
2022-10-18T15:47:20.179Z,23.20
2022-10-18T15:49:55.457Z,23.10
2022-10-18T15:52:39.279Z,23.10
2022-10-18T15:55:35.469Z,23.00
2022-10-18T15:58:06.517Z,23.00
2022-10-18T16:00:33.475Z,23.00
2022-10-18T16:03:00.485Z,22.90
2022-10-18T16:05:27.509Z,22.90
2022-10-18T16:07:54.529Z,22.90
2022-10-18T16:10:21.471Z,22.90
2022-10-18T16:12:48.424Z,22.80
2022-10-18T16:15:15.499Z,22.80
2022-10-18T16:17:42.458Z,22.70
2022-10-18T16:20:18.642Z,22.70
2022-10-18T16:22:45.586Z,22.70
2022-10-18T16:25:12.569Z,22.70
2022-10-18T16:27:39.506Z,22.60
2022-10-18T16:30:18.272Z,22.60
2022-10-18T16:32:46.441Z,22.60
2022-10-18T16:35:13.449Z,22.50
2022-10-18T16:37:40.518Z,22.50
2022-10-18T16:40:26.497Z,22.40
2022-10-18T16:42:53.654Z,22.40
2022-10-18T16:45:20.811Z,22.40
2022-10-18T16:47:47.750Z,22.30
2022-10-18T16:50:16.063Z,22.20
2022-10-18T16:52:43.395Z,22.20
2022-10-18T16:55:16.847Z,22.20
2022-10-18T16:57:43.774Z,22.20
2022-10-18T17:00:15.134Z,22.20
2022-10-18T17:02:42.050Z,22.10
2022-10-18T17:05:09.140Z,22.10
2022-10-18T17:07:36.098Z,22.10
2022-10-18T17:10:03.259Z,22.10
2022-10-18T17:12:30.359Z,22.10
2022-10-18T17:14:57.479Z,22.00
2022-10-18T17:17:24.500Z,22.00
2022-10-18T17:19:51.435Z,22.00
2022-10-18T17:22:18.354Z,22.00
2022-10-18T17:24:45.356Z,21.90
2022-10-18T17:27:12.298Z,21.80
2022-10-18T17:29:40.873Z,21.80
2022-10-18T17:32:08.007Z,21.70
2022-10-18T17:34:36.017Z,21.70
2022-10-18T17:37:03.858Z,21.70
2022-10-18T17:39:31.203Z,21.70
2022-10-18T17:41:58.142Z,21.60
2022-10-18T17:44:25.516Z,21.60
2022-10-18T17:46:52.717Z,21.50
2022-10-18T17:49:19.783Z,21.50
2022-10-18T17:51:46.777Z,21.50
2022-10-18T17:54:13.818Z,21.40
2022-10-18T17:56:40.820Z,21.40
2022-10-18T17:59:07.817Z,21.40
2022-10-18T18:01:35.039Z,21.40
2022-10-18T18:04:02.444Z,21.30
2022-10-18T18:06:36.365Z,21.30
2022-10-18T18:09:06.839Z,21.30
2022-10-18T18:11:34.681Z,21.20
2022-10-18T18:14:01.932Z,21.10
2022-10-18T18:16:29.580Z,21.10
2022-10-18T18:18:57.715Z,21.10
2022-10-18T18:21:25.655Z,21.10
2022-10-18T18:23:52.685Z,21.10
2022-10-18T18:26:19.881Z,21.00
2022-10-18T18:28:47.190Z,21.00
2022-10-18T18:31:15.875Z,20.90
2022-10-18T18:33:43.378Z,20.90
2022-10-18T18:36:11.186Z,20.90
2022-10-18T18:38:39.282Z,20.80
2022-10-18T18:41:07.033Z,20.80
2022-10-18T18:43:34.271Z,20.80
2022-10-18T18:46:01.411Z,20.80
2022-10-18T18:48:28.785Z,20.70
2022-10-18T18:50:55.697Z,20.70
2022-10-18T18:53:25.849Z,20.60
2022-10-18T18:55:54.271Z,20.50
2022-10-18T18:58:21.214Z,20.40
2022-10-18T19:00:48.175Z,20.40
2022-10-18T19:03:15.118Z,20.30
2022-10-18T19:05:42.093Z,20.30
2022-10-18T19:08:09.021Z,20.20
2022-10-18T19:10:35.969Z,20.10
2022-10-18T19:13:02.922Z,20.10
2022-10-18T19:15:29.856Z,20.10
2022-10-18T19:17:56.876Z,20.10
2022-10-18T19:20:23.816Z,20.10
2022-10-18T19:22:51.333Z,20.00
2022-10-18T19:25:18.874Z,20.00
2022-10-18T19:27:47.885Z,20.00
2022-10-18T19:30:14.805Z,20.00
2022-10-18T19:32:41.746Z,20.00
2022-10-18T19:35:08.847Z,19.90
2022-10-18T19:37:36.041Z,20.00
2022-10-18T19:40:03.512Z,19.90
2022-10-18T19:42:31.613Z,19.90
2022-10-18T19:44:58.817Z,19.90
2022-10-18T19:47:25.753Z,19.90
2022-10-18T19:49:53.738Z,19.90
2022-10-18T19:52:20.660Z,20.00
2022-10-18T19:54:50.386Z,20.00
2022-10-18T19:57:17.362Z,20.00
2022-10-18T19:59:44.414Z,20.00
2022-10-18T20:02:15.165Z,20.00
2022-10-18T20:04:42.129Z,19.90
2022-10-18T20:07:09.246Z,19.90
2022-10-18T20:09:36.403Z,19.90
2022-10-18T20:12:03.439Z,19.90
2022-10-18T20:14:30.366Z,19.90
2022-10-18T20:16:57.325Z,19.80
2022-10-18T20:19:24.242Z,19.80
2022-10-18T20:21:51.168Z,19.70
2022-10-18T20:24:18.095Z,19.70
2022-10-18T20:26:45.171Z,19.70
2022-10-18T20:29:12.277Z,19.60
2022-10-18T20:31:39.560Z,19.60
2022-10-18T20:34:08.012Z,19.60
2022-10-18T20:36:35.166Z,19.50
2022-10-18T20:39:02.264Z,19.40
2022-10-18T20:41:36.627Z,19.40
2022-10-18T20:44:04.965Z,19.30
2022-10-18T20:46:32.593Z,19.30
2022-10-18T20:48:59.589Z,19.30
2022-10-18T20:51:26.603Z,19.30
2022-10-18T20:53:53.811Z,19.30
2022-10-18T20:56:22.443Z,19.20
2022-10-18T20:58:51.292Z,19.20
2022-10-18T21:01:44.521Z,19.30
2022-10-18T21:04:11.700Z,19.30
2022-10-18T21:06:43.028Z,19.30
2022-10-18T21:09:11.918Z,19.30
2022-10-18T21:11:40.288Z,19.30
2022-10-18T21:14:07.721Z,19.30
2022-10-18T21:16:35.575Z,19.20
2022-10-18T21:19:06.620Z,19.20
2022-10-18T21:21:33.659Z,19.10
2022-10-18T21:24:03.845Z,19.10
2022-10-18T21:26:34.211Z,19.10
2022-10-18T21:29:01.295Z,19.10
2022-10-18T21:31:29.574Z,19.10
2022-10-18T21:33:57.689Z,19.00
2022-10-18T21:36:25.149Z,19.00
2022-10-18T21:38:52.322Z,18.90
2022-10-18T21:41:19.732Z,18.90
2022-10-18T21:43:48.241Z,18.90
2022-10-18T21:46:15.790Z,18.90
2022-10-18T21:48:44.191Z,18.80
2022-10-18T21:51:11.771Z,18.80
2022-10-18T21:53:38.735Z,18.80
2022-10-18T21:56:09.789Z,18.80
2022-10-18T21:58:37.418Z,18.80
2022-10-18T22:01:20.908Z,18.70
2022-10-18T22:03:48.929Z,18.80
2022-10-18T22:06:16.863Z,18.70
2022-10-18T22:08:45.263Z,18.60
2022-10-18T22:11:12.709Z,18.60
2022-10-18T22:13:40.001Z,18.60
2022-10-18T22:16:07.793Z,18.60
2022-10-18T22:18:34.953Z,18.50
2022-10-18T22:21:03.417Z,18.50
2022-10-18T22:23:39.730Z,18.50
2022-10-18T22:26:08.213Z,18.50
2022-10-18T22:28:35.832Z,18.40
2022-10-18T22:31:02.874Z,18.50
2022-10-18T22:33:30.024Z,18.50
2022-10-18T22:35:57.045Z,18.50
2022-10-18T22:38:24.122Z,18.50
2022-10-18T22:40:51.778Z,18.50
2022-10-18T22:43:18.897Z,18.50
2022-10-18T22:45:45.823Z,18.50
2022-10-18T22:48:12.773Z,18.50
2022-10-18T22:50:39.706Z,18.50
2022-10-18T22:53:06.677Z,18.50
2022-10-18T22:55:33.660Z,18.50
2022-10-18T22:58:00.581Z,18.50
